Time;durP1;ratioP1;P1;durP2;ratioP2;P2;SDS_P1;SDS_P2;PMS_P1;PMS_P2;Temp;Humidity;BMP_temperature;BMP_pressure;BME280_temperature;BME280_humidity;BME280_pressure;Samples;Min_cycle;Max_cycle;Signal;HPM_P1;HPM_P2
2022/07/01 00:01:59;;;;;;;6.20;1.30;;;15.30;99.90;;;;;;4939407;28;20773;-75
2022/07/01 00:04:26;;;;;;;6.03;1.20;;;15.30;99.90;;;;;;4922240;29;20130;-76
2022/07/01 00:06:53;;;;;;;3.90;1.17;;;15.30;99.90;;;;;;4922413;29;20043;-75
2022/07/01 00:09:19;;;;;;;6.55;1.10;;;15.30;99.90;;;;;;4923375;29;20118;-76
2022/07/01 00:11:45;;;;;;;6.93;1.33;;;15.30;99.90;;;;;;4927749;29;20044;-75
2022/07/01 00:14:10;;;;;;;5.03;1.40;;;15.30;99.90;;;;;;4923569;29;20272;-76
2022/07/01 00:16:36;;;;;;;4.72;1.48;;;15.30;99.90;;;;;;4924465;29;20520;-74
2022/07/01 00:19:03;;;;;;;5.75;1.13;;;15.30;99.90;;;;;;4923840;29;20413;-75
2022/07/01 00:21:29;;;;;;;7.15;1.30;;;15.30;99.90;;;;;;4922758;29;20055;-76
2022/07/01 00:23:54;;;;;;;3.80;1.10;;;15.30;99.90;;;;;;4927485;29;20050;-77
2022/07/01 00:26:20;;;;;;;6.38;1.50;;;15.30;99.90;;;;;;4923842;29;20564;-75
2022/07/01 00:28:46;;;;;;;4.60;1.10;;;15.40;99.90;;;;;;4942644;28;20058;-74
2022/07/01 00:31:12;;;;;;;6.38;1.30;;;15.30;99.90;;;;;;4922641;29;20052;-76
2022/07/01 00:33:37;;;;;;;5.95;1.23;;;15.30;99.90;;;;;;4924409;29;20043;-76
2022/07/01 00:36:03;;;;;;;4.03;1.08;;;15.40;99.90;;;;;;4923735;29;20044;-76
2022/07/01 00:38:29;;;;;;;7.57;1.63;;;15.40;99.90;;;;;;4943519;28;20046;-75
2022/07/01 00:40:55;;;;;;;4.53;1.40;;;15.30;99.90;;;;;;4908348;29;20040;-76
2022/07/01 00:43:24;;;;;;;7.15;1.50;;;15.40;99.90;;;;;;4923716;29;20051;-76
2022/07/01 00:45:51;;;;;;;5.72;1.17;;;15.40;99.90;;;;;;4918548;29;20052;-76
2022/07/01 00:48:19;;;;;;;6.40;1.30;;;15.30;99.90;;;;;;4907619;29;20111;-74
2022/07/01 00:50:45;;;;;;;4.78;1.20;;;15.30;99.90;;;;;;4928065;29;20047;-76
2022/07/01 00:53:14;;;;;;;6.32;1.15;;;15.30;99.90;;;;;;4922770;29;20055;-76
2022/07/01 00:55:41;;;;;;;2.83;1.10;;;15.40;99.90;;;;;;4923961;29;20052;-76
2022/07/01 00:58:09;;;;;;;3.60;1.10;;;15.40;99.90;;;;;;4919692;29;20134;-77
2022/07/01 01:00:38;;;;;;;1.77;0.80;;;15.40;99.90;;;;;;4939401;28;20086;-76
2022/07/01 01:03:06;;;;;;;3.55;1.25;;;15.40;99.90;;;;;;4929656;29;20047;-78
2022/07/01 01:05:32;;;;;;;2.63;1.02;;;15.30;99.90;;;;;;4922772;29;20047;-77
2022/07/01 01:07:57;;;;;;;3.33;1.00;;;15.30;99.90;;;;;;4925507;29;20039;-77
2022/07/01 01:10:25;;;;;;;3.65;1.13;;;15.30;99.90;;;;;;4926559;29;20410;-76
2022/07/01 01:12:51;;;;;;;3.08;1.20;;;15.30;99.90;;;;;;4930747;29;20047;-77
2022/07/01 01:15:18;;;;;;;2.35;0.90;;;15.30;99.90;;;;;;4909851;29;20082;-76
2022/07/01 01:17:44;;;;;;;5.70;1.67;;;15.30;99.90;;;;;;4920232;29;20036;-76
2022/07/01 01:20:18;;;;;;;2.28;1.15;;;15.30;99.90;;;;;;4930662;29;20047;-77
2022/07/01 01:22:46;;;;;;;6.50;1.20;;;15.30;99.90;;;;;;4921604;29;20040;-77
2022/07/01 01:25:12;;;;;;;3.55;1.15;;;15.30;99.90;;;;;;4921970;29;20052;-78
2022/07/01 01:27:38;;;;;;;3.95;1.25;;;15.20;99.90;;;;;;4929229;29;20453;-78
2022/07/01 01:30:05;;;;;;;2.88;1.20;;;15.20;99.90;;;;;;4927606;29;20052;-78
2022/07/01 01:32:31;;;;;;;3.13;1.25;;;15.20;99.90;;;;;;4925545;29;20058;-78
2022/07/01 01:34:57;;;;;;;4.05;1.42;;;15.20;99.90;;;;;;4902949;29;20507;-78
2022/07/01 01:37:22;;;;;;;3.85;1.17;;;15.20;99.90;;;;;;4927910;29;20143;-77
2022/07/01 01:39:48;;;;;;;4.38;1.48;;;15.20;99.90;;;;;;4912889;29;20039;-78
2022/07/01 01:42:14;;;;;;;3.85;1.35;;;15.10;99.90;;;;;;4925406;29;20071;-78
2022/07/01 01:44:39;;;;;;;4.13;1.40;;;15.20;99.90;;;;;;4930308;29;20032;-77
2022/07/01 01:47:06;;;;;;;2.55;1.27;;;15.10;99.90;;;;;;4909734;29;20493;-78
2022/07/01 01:49:31;;;;;;;6.15;1.33;;;15.10;99.90;;;;;;4929954;29;20078;-78
2022/07/01 01:51:59;;;;;;;6.53;1.30;;;15.10;99.90;;;;;;4907759;29;20079;-78
2022/07/01 01:54:25;;;;;;;3.30;1.10;;;15.10;99.90;;;;;;4927707;29;20044;-77
2022/07/01 01:56:51;;;;;;;3.25;1.20;;;15.10;99.90;;;;;;4943048;28;20052;-79
2022/07/01 01:59:17;;;;;;;2.35;1.08;;;15.10;99.90;;;;;;4907817;29;21000;-80
2022/07/01 02:01:43;;;;;;;2.85;1.20;;;15.10;99.90;;;;;;4937933;29;20592;-79
2022/07/01 02:04:09;;;;;;;2.08;1.10;;;15.00;99.90;;;;;;4930019;29;20142;-78
2022/07/01 02:06:35;;;;;;;3.97;1.10;;;15.10;99.90;;;;;;4939298;29;20063;-77
2022/07/01 02:09:00;;;;;;;4.65;1.20;;;15.00;99.90;;;;;;4946029;28;20146;-78
2022/07/01 02:11:26;;;;;;;4.28;1.10;;;15.00;99.90;;;;;;4913753;29;20048;-77
2022/07/01 02:13:52;;;;;;;4.60;1.20;;;15.00;99.90;;;;;;4927966;29;20405;-79
2022/07/01 02:16:18;;;;;;;3.28;1.15;;;15.00;99.90;;;;;;4921208;29;20040;-77
2022/07/01 02:18:44;;;;;;;3.17;1.63;;;14.90;99.90;;;;;;4924515;29;20493;-77
2022/07/01 02:21:10;;;;;;;3.70;1.52;;;14.80;99.90;;;;;;4924052;29;20040;-77
2022/07/01 02:23:35;;;;;;;4.43;1.63;;;14.90;99.90;;;;;;4945121;29;20374;-77
2022/07/01 02:26:01;;;;;;;3.10;1.27;;;14.90;99.90;;;;;;4909759;29;20059;-77
2022/07/01 02:28:27;;;;;;;2.78;1.30;;;14.90;99.90;;;;;;4927183;29;20051;-78
2022/07/01 02:30:52;;;;;;;6.47;1.60;;;14.90;99.90;;;;;;4929300;29;20050;-77
2022/07/01 02:33:18;;;;;;;5.13;1.73;;;14.90;99.90;;;;;;4927302;29;20117;-78
2022/07/01 02:35:44;;;;;;;3.28;1.67;;;14.80;99.90;;;;;;4928862;29;20054;-78
2022/07/01 02:38:09;;;;;;;6.65;2.20;;;14.80;99.90;;;;;;4942378;28;20477;-79
2022/07/01 02:40:39;;;;;;;4.97;2.05;;;14.80;99.90;;;;;;4926982;29;20046;-78
2022/07/01 02:43:06;;;;;;;5.47;1.95;;;14.80;99.90;;;;;;4919244;29;20035;-78
2022/07/01 02:45:31;;;;;;;4.95;1.90;;;14.80;99.90;;;;;;4946565;29;20042;-78
2022/07/01 02:47:57;;;;;;;5.97;1.90;;;14.80;99.90;;;;;;4929885;29;20054;-78
2022/07/01 02:50:23;;;;;;;4.55;1.85;;;14.70;99.90;;;;;;4945628;29;20041;-79
2022/07/01 02:52:49;;;;;;;4.55;1.92;;;14.70;99.90;;;;;;4943994;29;20051;-79
2022/07/01 02:55:15;;;;;;;5.53;1.92;;;14.70;99.90;;;;;;4923265;29;20066;-78
2022/07/01 02:57:42;;;;;;;5.80;2.22;;;14.70;99.90;;;;;;4942025;28;20050;-79
2022/07/01 03:00:10;;;;;;;5.32;1.95;;;14.70;99.90;;;;;;4942867;29;20048;-79
2022/07/01 03:02:36;;;;;;;5.25;1.80;;;14.70;99.90;;;;;;4926358;29;20401;-79
2022/07/01 03:05:03;;;;;;;4.25;2.30;;;14.60;99.90;;;;;;4925084;29;20044;-78
2022/07/01 03:07:29;;;;;;;6.03;2.22;;;14.60;99.90;;;;;;4915683;29;20043;-79
2022/07/01 03:09:55;;;;;;;5.03;2.30;;;14.70;99.90;;;;;;4948134;29;20050;-79
2022/07/01 03:12:34;;;;;;;5.38;2.40;;;14.60;99.90;;;;;;4941388;29;20070;-79
2022/07/01 03:15:08;;;;;;;5.85;2.45;;;14.60;99.90;;;;;;4942240;29;20404;-79
2022/07/01 03:17:35;;;;;;;8.82;2.40;;;14.60;99.90;;;;;;4940169;28;20044;-79
2022/07/01 03:20:04;;;;;;;5.82;2.47;;;14.60;99.90;;;;;;4944941;29;20047;-78
2022/07/01 03:22:30;;;;;;;7.30;2.80;;;14.60;99.90;;;;;;4929966;29;20043;-79
2022/07/01 03:24:57;;;;;;;5.93;2.50;;;14.50;99.90;;;;;;4929300;29;20054;-79
2022/07/01 03:27:23;;;;;;;5.50;2.75;;;14.60;99.90;;;;;;4956896;28;20039;-78
2022/07/01 03:29:49;;;;;;;7.25;3.00;;;14.50;99.90;;;;;;4933095;29;20098;-79
2022/07/01 03:32:15;;;;;;;5.00;2.83;;;14.60;99.90;;;;;;4939204;29;20432;-79
2022/07/01 03:34:43;;;;;;;5.75;2.88;;;14.50;99.90;;;;;;4931400;29;20722;-80
2022/07/01 03:37:10;;;;;;;6.15;2.58;;;14.50;99.90;;;;;;4932052;29;20047;-79
2022/07/01 03:39:37;;;;;;;5.47;2.45;;;14.40;99.90;;;;;;4944345;29;20075;-79
2022/07/01 03:42:04;;;;;;;10.55;3.33;;;14.50;99.90;;;;;;4929165;29;20043;-80
2022/07/01 03:44:30;;;;;;;5.93;3.05;;;14.50;99.90;;;;;;4923440;29;20106;-80
2022/07/01 03:46:55;;;;;;;5.18;2.67;;;14.50;99.90;;;;;;4928174;29;20051;-79
2022/07/01 03:49:22;;;;;;;6.55;2.85;;;14.50;99.90;;;;;;4930235;29;20047;-79
2022/07/01 03:51:49;;;;;;;5.30;2.90;;;14.50;99.90;;;;;;4929169;29;20043;-80
2022/07/01 03:54:29;;;;;;;6.85;3.15;;;14.50;99.90;;;;;;4946042;28;20509;-81
2022/07/01 03:57:03;;;;;;;7.20;3.55;;;14.60;99.90;;;;;;4944401;28;20393;-80
2022/07/01 03:59:30;;;;;;;7.90;2.55;;;14.60;99.90;;;;;;4930619;29;20051;-80
2022/07/01 04:01:57;;;;;;;6.47;2.72;;;14.60;99.90;;;;;;4942320;28;21023;-80
2022/07/01 04:04:24;;;;;;;8.68;3.13;;;14.50;99.90;;;;;;4945165;29;20039;-80
2022/07/01 04:06:53;;;;;;;7.85;3.13;;;14.70;99.90;;;;;;4929356;29;20036;-79
2022/07/01 04:09:19;;;;;;;7.90;3.10;;;14.60;99.90;;;;;;4913251;29;20066;-80
2022/07/01 04:11:48;;;;;;;8.35;3.08;;;14.60;99.90;;;;;;4920945;29;20138;-80
2022/07/01 04:14:13;;;;;;;10.10;3.08;;;14.70;99.90;;;;;;4927349;29;20059;-80
2022/07/01 04:16:39;;;;;;;6.82;2.85;;;14.70;99.90;;;;;;4913507;28;20055;-80
2022/07/01 04:19:05;;;;;;;6.78;3.35;;;14.70;99.90;;;;;;4929690;29;20044;-80
2022/07/01 04:24:16;;;;;;;8.15;3.50;;;14.70;99.90;;;;;;4933293;29;21814;-80
2022/07/01 04:26:43;;;;;;;12.23;3.38;;;14.70;99.90;;;;;;4925007;28;21590;-81
2022/07/01 04:29:09;;;;;;;8.70;3.80;;;14.70;99.90;;;;;;4924559;29;20051;-82
2022/07/01 04:31:36;;;;;;;6.25;3.58;;;14.70;99.90;;;;;;4923433;29;20126;-82
2022/07/01 04:34:02;;;;;;;9.00;3.60;;;14.70;99.90;;;;;;4931856;29;20113;-81
2022/07/01 04:36:28;;;;;;;9.60;4.10;;;14.60;99.90;;;;;;4929510;29;20075;-81
2022/07/01 04:38:53;;;;;;;7.25;4.05;;;14.70;99.90;;;;;;4915484;29;20051;-81
2022/07/01 04:44:04;;;;;;;10.43;4.03;;;14.60;99.90;;;;;;4947090;29;20117;-82
2022/07/01 04:46:29;;;;;;;7.10;4.65;;;14.60;99.90;;;;;;4924110;28;20047;-81
2022/07/01 04:48:55;;;;;;;11.82;4.68;;;14.70;99.90;;;;;;4941359;28;20050;-81
2022/07/01 04:51:21;;;;;;;9.10;4.20;;;14.60;99.90;;;;;;4929664;29;20409;-82
2022/07/01 04:53:47;;;;;;;8.88;4.20;;;14.60;99.90;;;;;;4944307;29;20128;-81
2022/07/01 04:56:12;;;;;;;8.68;4.65;;;14.70;99.90;;;;;;4933479;29;20095;-81
2022/07/01 04:58:40;;;;;;;10.73;5.18;;;14.70;99.90;;;;;;4937726;28;20868;-82
2022/07/01 05:01:06;;;;;;;11.07;4.80;;;14.70;99.90;;;;;;4914557;29;20051;-82
2022/07/01 05:03:32;;;;;;;9.80;5.40;;;14.70;99.90;;;;;;4928184;29;20046;-81
2022/07/01 05:05:58;;;;;;;8.35;5.60;;;14.60;99.90;;;;;;4919720;29;20039;-80
2022/07/01 05:08:23;;;;;;;9.82;6.55;;;14.70;99.90;;;;;;4944701;28;20047;-81
2022/07/01 05:10:49;;;;;;;11.73;7.18;;;14.70;99.90;;;;;;4949752;28;20074;-81
2022/07/01 05:13:15;;;;;;;10.13;6.88;;;14.70;99.90;;;;;;4929311;29;20045;-82
2022/07/01 05:15:41;;;;;;;11.25;7.78;;;14.70;99.90;;;;;;4930686;28;20954;-80
2022/07/01 05:23:35;;;;;;;15.73;9.95;;;14.70;99.90;;;;;;4953999;28;20464;-79
2022/07/01 05:26:02;;;;;;;14.45;9.27;;;14.70;99.90;;;;;;4937920;29;20035;-82
2022/07/01 05:28:27;;;;;;;15.63;10.73;;;14.80;99.90;;;;;;4963435;28;20052;-79
2022/07/01 05:30:53;;;;;;;16.90;11.50;;;14.80;99.90;;;;;;4944290;29;20055;-80
2022/07/01 05:33:21;;;;;;;15.70;11.73;;;14.80;99.90;;;;;;4961730;28;20043;-81
2022/07/01 05:35:47;;;;;;;19.13;12.98;;;14.80;99.90;;;;;;4940731;29;20052;-81
2022/07/01 05:38:13;;;;;;;22.17;13.98;;;14.80;99.90;;;;;;4924675;29;20032;-80
2022/07/01 05:40:38;;;;;;;21.77;14.15;;;14.90;99.90;;;;;;4940670;28;20456;-82
2022/07/01 05:43:04;;;;;;;20.08;14.30;;;15.00;99.90;;;;;;4919954;29;20043;-83
2022/07/01 05:45:30;;;;;;;20.45;14.60;;;15.00;99.90;;;;;;4928207;28;20122;-80
2022/07/01 05:47:56;;;;;;;21.30;15.20;;;14.90;99.90;;;;;;4927571;29;20118;-83
2022/07/01 05:50:23;;;;;;;21.35;14.70;;;15.00;99.90;;;;;;4941722;29;20040;-83
2022/07/01 05:52:49;;;;;;;25.05;16.23;;;15.10;99.90;;;;;;4931470;29;20051;-81
2022/07/01 05:55:16;;;;;;;23.80;15.98;;;15.10;99.90;;;;;;4948491;28;20417;-80
2022/07/01 05:57:41;;;;;;;24.02;15.85;;;15.10;99.90;;;;;;4944108;28;20046;-81
2022/07/01 06:00:09;;;;;;;21.30;15.68;;;15.10;99.90;;;;;;4945624;28;20051;-81
2022/07/01 06:02:35;;;;;;;23.55;16.63;;;15.20;99.90;;;;;;4907309;29;20062;-79
2022/07/01 06:05:02;;;;;;;22.52;16.73;;;15.30;99.90;;;;;;4931452;29;20043;-79
2022/07/01 06:07:28;;;;;;;26.63;16.95;;;15.40;99.90;;;;;;4912296;29;20421;-80
2022/07/01 06:09:55;;;;;;;25.48;18.20;;;15.30;99.90;;;;;;4944691;28;20050;-80
2022/07/01 06:12:21;;;;;;;28.55;18.63;;;15.50;99.90;;;;;;4938568;29;20066;-81
2022/07/01 06:14:48;;;;;;;24.67;18.60;;;15.50;99.90;;;;;;4927053;29;20135;-82
2022/07/01 06:17:15;;;;;;;25.20;18.10;;;15.50;99.90;;;;;;4943758;28;20043;-83
2022/07/01 06:19:40;;;;;;;25.38;18.50;;;15.60;99.90;;;;;;4944072;29;20328;-81
2022/07/01 06:22:06;;;;;;;26.85;19.45;;;15.70;99.90;;;;;;4945773;29;20489;-81
2022/07/01 06:24:32;;;;;;;26.23;19.48;;;15.80;99.90;;;;;;4931354;29;20475;-84
2022/07/01 06:26:58;;;;;;;30.20;19.83;;;15.90;99.90;;;;;;4922833;29;20039;-81
2022/07/01 06:29:24;;;;;;;25.70;18.70;;;15.90;99.90;;;;;;4929336;29;20492;-83
2022/07/01 06:31:49;;;;;;;25.95;18.48;;;16.00;99.90;;;;;;4914594;29;20062;-82
2022/07/01 06:34:15;;;;;;;26.35;18.88;;;16.00;99.90;;;;;;4944287;29;20920;-82
2022/07/01 06:36:41;;;;;;;28.08;18.38;;;16.20;99.90;;;;;;4929912;29;20063;-82
2022/07/01 06:39:07;;;;;;;26.23;19.02;;;16.30;99.90;;;;;;4915061;29;20058;-83
2022/07/01 06:41:32;;;;;;;25.65;17.52;;;16.40;99.90;;;;;;4931820;29;20074;-81
2022/07/01 06:44:00;;;;;;;24.85;18.50;;;16.30;99.90;;;;;;4913726;29;20051;-82
2022/07/01 06:46:27;;;;;;;25.95;19.42;;;16.40;99.90;;;;;;4946296;28;20122;-83
2022/07/01 06:48:52;;;;;;;29.67;19.65;;;16.40;99.90;;;;;;4925263;29;20097;-82
2022/07/01 06:51:18;;;;;;;28.98;20.35;;;16.40;99.90;;;;;;4944663;29;20039;-83
2022/07/01 06:53:46;;;;;;;28.83;21.50;;;16.40;99.90;;;;;;4911743;29;20154;-81
2022/07/01 06:56:12;;;;;;;29.48;20.88;;;16.40;99.90;;;;;;4943875;28;20192;-82
2022/07/01 06:58:38;;;;;;;29.67;21.73;;;16.40;99.90;;;;;;4940948;28;20059;-81
2022/07/01 07:01:04;;;;;;;28.83;20.30;;;16.40;99.90;;;;;;4938200;29;20045;-82
2022/07/01 07:03:32;;;;;;;27.90;19.65;;;16.30;99.90;;;;;;4939575;29;20404;-81
2022/07/01 07:06:02;;;;;;;30.95;19.80;;;16.40;99.90;;;;;;4914294;29;20050;-83
2022/07/01 07:08:31;;;;;;;28.35;20.55;;;16.50;99.90;;;;;;4940908;29;20697;-82
2022/07/01 07:10:58;;;;;;;26.88;19.73;;;16.50;99.90;;;;;;4922620;29;21873;-76
2022/07/01 07:13:24;;;;;;;26.98;20.10;;;16.50;99.90;;;;;;4920898;28;20699;-76
2022/07/01 07:15:50;;;;;;;28.73;19.52;;;16.40;99.90;;;;;;4936394;28;20036;-75
2022/07/01 07:18:16;;;;;;;29.73;20.05;;;16.40;99.90;;;;;;4903092;29;20070;-79
2022/07/01 07:20:42;;;;;;;25.45;18.48;;;16.40;99.90;;;;;;4939840;28;20109;-76
2022/07/01 07:23:08;;;;;;;27.98;20.65;;;16.40;99.90;;;;;;4923831;29;20051;-76
2022/07/01 07:25:34;;;;;;;24.85;20.77;;;16.50;99.90;;;;;;4943867;29;20043;-76
2022/07/01 07:28:00;;;;;;;26.67;19.25;;;16.50;99.90;;;;;;4934707;29;20051;-78
2022/07/01 07:30:25;;;;;;;25.52;19.70;;;16.50;99.90;;;;;;4932878;29;20643;-79
2022/07/01 07:32:51;;;;;;;27.10;19.13;;;16.60;99.90;;;;;;4917474;29;20179;-78
2022/07/01 07:35:17;;;;;;;25.80;17.98;;;16.70;99.90;;;;;;4932390;29;20186;-79
2022/07/01 07:37:44;;;;;;;25.55;17.95;;;16.80;99.90;;;;;;4932023;29;20047;-78
2022/07/01 07:40:12;;;;;;;23.90;17.83;;;16.90;99.90;;;;;;4917867;29;20839;-78
2022/07/01 07:42:39;;;;;;;23.20;18.80;;;16.90;99.90;;;;;;4918590;29;20501;-78
2022/07/01 07:45:09;;;;;;;27.02;19.20;;;16.90;99.90;;;;;;4902637;29;20055;-78
2022/07/01 07:47:35;;;;;;;24.40;18.33;;;16.90;99.90;;;;;;4917916;29;20047;-78
2022/07/01 07:50:02;;;;;;;24.05;18.65;;;16.90;99.90;;;;;;4917810;29;20504;-77
2022/07/01 07:52:28;;;;;;;24.88;20.05;;;17.00;99.90;;;;;;4922969;29;20161;-78
2022/07/01 07:54:54;;;;;;;25.85;19.48;;;17.10;99.90;;;;;;4909233;29;20047;-77
2022/07/01 07:57:20;;;;;;;25.25;20.52;;;17.30;99.90;;;;;;4917998;29;21028;-77
2022/07/01 07:59:46;;;;;;;23.58;18.85;;;17.50;99.90;;;;;;4916469;29;20052;-77
2022/07/01 08:02:12;;;;;;;24.48;19.00;;;17.80;99.90;;;;;;4926230;29;20058;-77
2022/07/01 08:04:38;;;;;;;24.05;19.65;;;18.10;99.90;;;;;;4913223;29;20052;-77
2022/07/01 08:07:04;;;;;;;25.20;19.05;;;18.40;99.90;;;;;;4945006;28;20190;-76
2022/07/01 08:09:31;;;;;;;20.85;16.83;;;18.80;99.90;;;;;;4925327;29;20052;-77
2022/07/01 08:11:57;;;;;;;22.90;15.48;;;19.20;99.90;;;;;;4915228;29;20047;-78
2022/07/01 08:14:23;;;;;;;21.30;16.45;;;19.70;99.90;;;;;;4915420;29;20048;-78
2022/07/01 08:16:49;;;;;;;23.50;15.05;;;20.00;99.90;;;;;;4914759;29;20055;-77
2022/07/01 08:19:14;;;;;;;17.63;12.98;;;20.10;99.90;;;;;;4912983;29;20044;-78
2022/07/01 08:21:40;;;;;;;16.42;11.45;;;20.20;99.90;;;;;;4913373;29;20844;-77
2022/07/01 08:24:06;;;;;;;17.52;12.32;;;20.20;99.90;;;;;;4930984;28;20126;-77
2022/07/01 08:26:31;;;;;;;18.92;12.40;;;20.20;99.90;;;;;;4912714;29;20086;-76
2022/07/01 08:28:57;;;;;;;15.15;11.50;;;20.40;99.90;;;;;;4920661;29;20054;-76
2022/07/01 08:31:23;;;;;;;16.33;10.82;;;20.60;99.90;;;;;;4925505;29;20234;-77
2022/07/01 08:33:48;;;;;;;20.00;10.40;;;20.90;99.90;;;;;;4922904;29;20188;-78
2022/07/01 08:36:14;;;;;;;13.80;8.85;;;21.20;99.90;;;;;;4935847;28;20095;-77
2022/07/01 08:38:41;;;;;;;14.77;9.23;;;21.50;99.90;;;;;;4936241;29;20074;-77
2022/07/01 08:41:06;;;;;;;13.02;8.65;;;21.80;99.90;;;;;;4916870;28;21020;-78
2022/07/01 08:43:33;;;;;;;14.85;8.60;;;21.80;99.90;;;;;;4916083;29;20061;-77
2022/07/01 08:46:02;;;;;;;15.23;8.30;;;21.90;99.90;;;;;;4916772;28;20451;-82
2022/07/01 08:48:29;;;;;;;12.82;7.40;;;22.00;99.90;;;;;;4942272;29;20062;-78
2022/07/01 08:50:55;;;;;;;14.00;8.35;;;22.00;99.90;;;;;;4918280;29;20086;-76
2022/07/01 08:53:21;;;;;;;11.68;7.00;;;22.00;99.90;;;;;;4934247;29;20385;-79
2022/07/01 08:58:31;;;;;;;13.38;5.75;;;21.70;99.90;;;;;;4933900;29;20043;-79
2022/07/01 09:01:20;;;;;;;10.85;5.10;;;21.60;99.90;;;;;;4921813;29;20059;-79
2022/07/01 09:03:47;;;;;;;10.30;4.80;;;21.40;99.90;;;;;;4934233;28;20137;-76
2022/07/01 09:06:16;;;;;;;11.10;5.20;;;21.10;99.90;;;;;;4922799;29;20547;-78
2022/07/01 09:08:42;;;;;;;12.07;5.57;;;21.10;99.90;;;;;;4936346;29;20131;-77
2022/07/01 09:11:16;;;;;;;11.38;6.60;;;21.10;99.90;;;;;;4936283;28;20051;-76
2022/07/01 09:13:43;;;;;;;13.02;5.82;;;21.20;99.90;;;;;;4922711;29;20047;-77
2022/07/01 09:16:14;;;;;;;9.15;5.43;;;21.20;99.90;;;;;;4923833;29;20043;-76
2022/07/01 09:18:40;;;;;;;12.07;5.00;;;21.40;99.90;;;;;;4922770;29;20122;-76
2022/07/01 09:21:13;;;;;;;11.77;4.90;;;21.60;99.90;;;;;;4923719;29;20039;-76
2022/07/01 09:23:39;;;;;;;8.68;4.45;;;22.00;99.90;;;;;;4926583;28;20047;-77
2022/07/01 09:26:05;;;;;;;8.32;3.50;;;22.30;99.90;;;;;;4943294;28;20054;-78
2022/07/01 09:28:31;;;;;;;14.23;3.80;;;22.30;99.90;;;;;;4926726;29;20154;-77
2022/07/01 09:30:58;;;;;;;8.70;3.50;;;22.60;99.90;;;;;;4928150;29;20090;-76
2022/07/01 09:33:26;;;;;;;9.20;3.25;;;23.20;99.90;;;;;;4941322;29;20417;-75
2022/07/01 09:35:53;;;;;;;8.43;3.22;;;23.70;99.90;;;;;;4937878;28;20051;-77
2022/07/01 09:38:24;;;;;;;11.02;3.45;;;23.60;99.90;;;;;;4941742;28;20172;-74
2022/07/01 09:40:53;;;;;;;9.55;4.20;;;23.40;99.90;;;;;;4941795;28;20109;-77
2022/07/01 09:43:27;;;;;;;9.50;3.63;;;23.30;99.90;;;;;;4933592;29;20203;-75
2022/07/01 09:46:03;;;;;;;10.20;2.90;;;23.00;99.90;;;;;;4919073;29;20073;-76
2022/07/01 09:48:32;;;;;;;9.52;3.10;;;22.60;99.90;;;;;;4925873;29;20615;-76
2022/07/01 09:50:58;;;;;;;6.65;2.67;;;22.50;99.90;;;;;;4937860;28;20405;-74
2022/07/01 09:53:24;;;;;;;8.43;2.60;;;22.70;99.90;;;;;;4936728;29;20047;-75
2022/07/01 09:55:51;;;;;;;8.63;2.90;;;22.70;99.90;;;;;;4937815;29;20057;-75
2022/07/01 09:58:18;;;;;;;7.65;2.72;;;22.70;99.90;;;;;;4936219;28;20442;-75
2022/07/01 10:00:44;;;;;;;5.70;2.47;;;22.60;99.90;;;;;;4919836;29;20089;-75
2022/07/01 10:03:10;;;;;;;6.28;2.28;;;22.40;99.90;;;;;;4920463;29;20039;-75
2022/07/01 10:05:48;;;;;;;6.97;1.73;;;22.50;99.90;;;;;;4938796;29;20043;-75
2022/07/01 10:08:23;;;;;;;7.22;2.08;;;22.90;99.90;;;;;;4923906;29;20075;-76
2022/07/01 10:11:15;;;;;;;6.43;2.05;;;23.40;99.90;;;;;;4937213;29;20143;-75
2022/07/01 10:13:42;;;;;;;10.57;2.45;;;23.50;99.90;;;;;;4922847;29;20512;-74
2022/07/01 10:16:10;;;;;;;7.45;2.20;;;23.50;99.90;;;;;;4927262;29;20135;-74
2022/07/01 10:18:36;;;;;;;10.90;2.65;;;23.40;99.90;;;;;;4923763;29;20524;-75
2022/07/01 10:21:04;;;;;;;6.10;2.22;;;23.20;99.90;;;;;;4941135;28;20138;-75
2022/07/01 10:23:41;;;;;;;7.45;2.60;;;23.00;99.90;;;;;;4940211;29;20126;-75
2022/07/01 10:26:10;;;;;;;10.15;3.50;;;22.70;99.90;;;;;;4909676;28;20421;-74
2022/07/01 10:28:47;;;;;;;8.48;3.58;;;22.30;99.90;;;;;;4940081;28;20110;-75
2022/07/01 10:31:17;;;;;;;10.30;3.67;;;21.90;99.90;;;;;;4942482;29;20098;-75
2022/07/01 10:33:50;;;;;;;7.00;3.13;;;21.80;99.90;;;;;;4942710;28;20468;-74
2022/07/01 10:36:18;;;;;;;8.15;2.97;;;21.80;99.90;;;;;;4941583;28;20070;-73
2022/07/01 10:39:09;;;;;;;6.95;3.33;;;21.70;99.90;;;;;;4924493;29;20047;-73
2022/07/01 10:41:58;;;;;;;9.10;3.20;;;21.40;99.90;;;;;;4924827;29;20408;-74
2022/07/01 10:44:25;;;;;;;6.38;2.70;;;21.20;99.90;;;;;;4934869;28;20066;-73
2022/07/01 10:47:01;;;;;;;9.85;3.42;;;21.10;99.90;;;;;;4900141;29;20059;-74
2022/07/01 10:49:35;;;;;;;6.85;2.22;;;20.80;99.90;;;;;;4943260;29;20059;-73
2022/07/01 10:52:08;;;;;;;6.38;1.73;;;20.40;99.90;;;;;;4940768;28;20043;-73
2022/07/01 10:54:36;;;;;;;7.35;1.52;;;20.10;99.90;;;;;;4927199;29;20047;-73
2022/07/01 10:59:44;;;;;;;;;;;19.50;99.90;;;;;;4927238;29;20609;-73
2022/07/01 11:02:11;;;;;;;5.20;1.20;;;19.30;99.90;;;;;;4941556;29;20457;-73
2022/07/01 11:04:38;;;;;;;4.97;1.27;;;19.20;99.90;;;;;;4945745;28;20035;-73
2022/07/01 11:07:04;;;;;;;5.82;1.20;;;19.10;99.90;;;;;;4926445;28;20796;-73
2022/07/01 11:09:30;;;;;;;6.93;1.38;;;19.00;99.90;;;;;;4927709;29;20131;-74
2022/07/01 11:11:56;;;;;;;5.10;1.13;;;18.90;99.90;;;;;;4942441;28;20039;-73
2022/07/01 11:14:21;;;;;;;4.03;1.65;;;18.80;99.90;;;;;;4941646;28;20058;-74
2022/07/01 11:16:51;;;;;;;3.60;0.98;;;18.80;99.90;;;;;;4941053;28;20052;-74
2022/07/01 11:19:20;;;;;;;5.63;1.05;;;18.70;99.90;;;;;;4940290;28;20044;-73
2022/07/01 11:21:53;;;;;;;5.80;1.27;;;18.70;99.90;;;;;;4921584;29;20051;-74
2022/07/01 11:24:23;;;;;;;5.18;1.08;;;18.70;99.90;;;;;;4917895;29;20043;-73
2022/07/01 11:26:49;;;;;;;4.55;1.30;;;18.70;99.90;;;;;;4942758;29;20463;-73
2022/07/01 11:29:25;;;;;;;4.43;1.00;;;18.80;99.90;;;;;;4922140;29;20052;-73
2022/07/01 11:31:51;;;;;;;5.72;1.20;;;19.30;99.90;;;;;;4925008;29;20126;-75
2022/07/01 11:34:17;;;;;;;6.13;1.27;;;19.90;99.90;;;;;;4922222;29;20226;-73
2022/07/01 11:39:33;;;;;;;8.73;1.63;;;20.50;99.90;;;;;;4925778;29;20405;-73
2022/07/01 11:42:02;;;;;;;8.45;1.30;;;21.20;99.90;;;;;;4919123;29;20530;-73
2022/07/01 11:44:36;;;;;;;8.05;1.13;;;21.80;99.90;;;;;;4918536;29;20244;-74
2022/07/01 11:47:04;;;;;;;5.68;1.23;;;22.30;99.90;;;;;;4921014;29;20039;-73
2022/07/01 11:49:30;;;;;;;5.00;1.25;;;22.40;99.90;;;;;;4937681;29;20055;-73
2022/07/01 11:52:08;;;;;;;5.13;1.35;;;22.20;99.90;;;;;;4921052;29;20043;-73
2022/07/01 11:54:38;;;;;;;6.07;1.45;;;22.30;99.90;;;;;;4936769;29;20641;-73
2022/07/01 11:57:13;;;;;;;4.35;1.08;;;22.40;99.90;;;;;;4936750;28;20068;-73
2022/07/01 11:59:40;;;;;;;5.65;1.20;;;22.30;99.90;;;;;;4934400;29;20567;-73
2022/07/01 12:02:06;;;;;;;7.55;1.30;;;22.20;99.90;;;;;;4942314;28;20505;-73
2022/07/01 12:04:32;;;;;;;5.20;1.10;;;22.20;99.90;;;;;;4925998;29;20098;-73
2022/07/01 12:06:59;;;;;;;4.65;1.02;;;22.40;99.90;;;;;;4923884;29;20425;-74
2022/07/01 12:09:26;;;;;;;5.93;0.90;;;22.70;99.90;;;;;;4923436;29;20051;-73
2022/07/01 12:11:53;;;;;;;6.40;1.20;;;23.00;99.90;;;;;;4936571;28;20133;-74
2022/07/01 12:14:27;;;;;;;8.80;1.45;;;23.30;99.90;;;;;;4923737;29;20189;-74
2022/07/01 12:16:55;;;;;;;4.40;1.10;;;23.40;99.90;;;;;;4938648;29;20470;-73
2022/07/01 12:19:28;;;;;;;5.20;1.50;;;23.20;99.90;;;;;;4919984;29;20595;-73
2022/07/01 12:21:58;;;;;;;5.22;1.50;;;23.00;99.90;;;;;;4939986;28;20502;-73
2022/07/01 12:24:24;;;;;;;6.38;1.30;;;22.80;99.90;;;;;;4919783;29;20159;-73
2022/07/01 12:26:59;;;;;;;4.47;1.20;;;22.60;99.90;;;;;;4920830;29;20564;-73
2022/07/01 12:29:27;;;;;;;5.90;1.15;;;22.40;99.90;;;;;;4922603;29;20063;-73
2022/07/01 12:32:04;;;;;;;5.50;1.08;;;22.40;99.90;;;;;;4921777;28;20085;-73
2022/07/01 12:34:43;;;;;;;6.88;1.80;;;22.20;99.90;;;;;;4921524;29;20134;-73
2022/07/01 12:37:14;;;;;;;4.82;0.90;;;21.90;99.90;;;;;;4938710;28;20055;-74
2022/07/01 12:39:43;;;;;;;3.75;0.80;;;21.70;99.90;;;;;;4919868;29;20047;-74
2022/07/01 12:42:19;;;;;;;5.53;1.08;;;21.50;99.90;;;;;;4917576;29;20138;-72
2022/07/01 12:44:46;;;;;;;6.45;0.95;;;21.40;99.90;;;;;;4940945;28;20490;-73
2022/07/01 12:47:28;;;;;;;3.95;0.93;;;21.60;99.90;;;;;;4921263;29;20129;-73
2022/07/01 12:50:27;;;;;;;4.18;0.80;;;22.10;99.90;;;;;;4941539;29;20051;-71
2022/07/01 12:53:06;;;;;;;6.90;0.95;;;22.00;99.90;;;;;;4941583;28;20112;-73
2022/07/01 12:55:33;;;;;;;6.85;0.90;;;21.70;99.90;;;;;;4919541;29;20044;-72
2022/07/01 12:57:59;;;;;;;3.42;1.05;;;21.40;99.90;;;;;;4935228;28;20090;-74
2022/07/01 13:00:27;;;;;;;5.93;0.98;;;21.30;99.90;;;;;;4911732;29;20141;-73
2022/07/01 13:02:59;;;;;;;6.22;1.27;;;21.30;99.90;;;;;;4935231;28;20048;-72